Time,TemperatureF,DewpointF,PressureIn,WindDirection,WindDirectionDegrees,WindSpeedMPH,WindSpeedGustMPH,Humidity,HourlyPrecipIn,Conditions,Clouds,dailyrainin,SoftwareType,DateUTC
2013-04-08 00:00:00,52.7,44.0,30.05,SSE,159,4.0,-999.0,71,-99.99,,,0.00,weatherlink.com 1.10,2013-04-08 04:00:00,
2013-04-08 00:15:00,52.4,43.0,30.05,SSE,159,4.0,-999.0,71,-99.99,,,0.00,weatherlink.com 1.10,2013-04-08 04:15:00,
2013-04-08 00:30:00,51.8,43.0,30.05,SSE,159,2.0,-999.0,72,-99.99,,,0.00,weatherlink.com 1.10,2013-04-08 04:30:00,
2013-04-08 00:45:00,51.4,43.0,30.05,SSE,159,4.0,-999.0,74,-99.99,,,0.00,weatherlink.com 1.10,2013-04-08 04:45:00,
2013-04-08 01:00:00,51.4,43.0,30.05,SSE,159,2.0,-999.0,74,-99.99,,,0.00,weatherlink.com 1.10,2013-04-08 05:00:00,
2013-04-08 01:15:00,51.4,43.0,30.05,SSE,159,0.0,-999.0,73,-99.99,,,0.00,weatherlink.com 1.10,2013-04-08 05:15:00,
2013-04-08 01:30:00,51.3,43.0,30.05,SSE,159,2.0,-999.0,74,-99.99,,,0.00,weatherlink.com 1.10,2013-04-08 05:30:00,
2013-04-08 01:45:00,51.1,43.0,30.05,SSE,159,2.0,-999.0,74,-99.99,,,0.00,weatherlink.com 1.10,2013-04-08 05:45:00,
2013-04-08 02:00:00,51.5,43.0,30.04,SSE,159,2.0,-999.0,74,-99.99,,,0.00,weatherlink.com 1.10,2013-04-08 06:00:00,
2013-04-08 02:15:00,51.6,43.0,30.04,SSE,159,0.0,-999.0,73,-99.99,,,0.00,weatherlink.com 1.10,2013-04-08 06:15:00,
2013-04-08 02:30:00,51.5,43.0,30.03,SSE,159,0.0,-999.0,73,-99.99,,,0.00,weatherlink.com 1.10,2013-04-08 06:30:00,
2013-04-08 02:45:00,51.0,43.0,30.02,SE,132,2.0,-999.0,75,-99.99,,,0.00,weatherlink.com 1.10,2013-04-08 06:45:00,
2013-04-08 03:00:00,50.6,44.0,30.02,SSE,147,4.0,-999.0,77,-99.99,,,0.00,weatherlink.com 1.10,2013-04-08 07:00:00,
2013-04-08 03:15:00,50.6,44.0,30.01,SE,130,2.0,-999.0,77,-99.99,,,0.00,weatherlink.com 1.10,2013-04-08 07:15:00,
2013-04-08 03:30:00,50.8,44.0,30.02,SE,130,4.0,-999.0,77,-99.99,,,0.00,weatherlink.com 1.10,2013-04-08 07:30:00,
2013-04-08 03:45:00,50.8,44.0,30.02,East,98,4.0,-999.0,77,-99.99,,,0.00,weatherlink.com 1.10,2013-04-08 07:45:00,
2013-04-08 04:00:00,50.4,43.0,30.02,SE,129,2.0,-999.0,77,-99.99,,,0.00,weatherlink.com 1.10,2013-04-08 08:00:00,
2013-04-08 04:15:00,50.3,43.0,30.02,ESE,110,2.0,-999.0,77,-99.99,,,0.00,weatherlink.com 1.10,2013-04-08 08:15:00,
2013-04-08 04:30:00,50.0,43.0,30.02,SSE,151,2.0,-999.0,78,-99.99,,,0.00,weatherlink.com 1.10,2013-04-08 08:30:00,
2013-04-08 04:45:00,49.6,43.0,30.02,SSE,149,1.0,-999.0,79,-99.99,,,0.00,weatherlink.com 1.10,2013-04-08 08:45:00,
2013-04-08 05:00:00,49.2,44.0,30.03,SSE,156,2.0,-999.0,81,-99.99,,,0.00,weatherlink.com 1.10,2013-04-08 09:00:00,
2013-04-08 05:30:00,48.5,44.0,30.03,SSE,152,0.0,-999.0,84,-99.99,,,0.00,weatherlink.com 1.10,2013-04-08 09:30:00,
2013-04-08 05:45:00,48.6,44.0,30.03,SE,146,2.0,-999.0,85,-99.99,,,0.00,weatherlink.com 1.10,2013-04-08 09:45:00,
2013-04-08 06:00:00,48.7,44.0,30.02,South,187,3.0,-999.0,84,-99.99,,,0.00,weatherlink.com 1.10,2013-04-08 10:00:00,
2013-04-08 06:15:00,48.5,44.0,30.02,South,186,0.0,-999.0,84,-99.99,,,0.00,weatherlink.com 1.10,2013-04-08 10:15:00,
2013-04-08 06:30:00,48.8,44.0,30.02,South,186,3.0,-999.0,84,-99.99,,,0.00,weatherlink.com 1.10,2013-04-08 10:30:00,
2013-04-08 06:45:00,49.6,44.0,30.03,South,186,0.0,-999.0,82,-99.99,,,0.00,weatherlink.com 1.10,2013-04-08 10:45:00,
2013-04-08 07:00:00,50.0,44.0,30.03,South,186,0.0,-999.0,81,-99.99,,,0.00,weatherlink.com 1.10,2013-04-08 11:00:00,
2013-04-08 07:15:00,50.2,45.0,30.04,NE,50,2.0,-999.0,81,-99.99,,,0.00,weatherlink.com 1.10,2013-04-08 11:15:00,
2013-04-08 07:30:00,49.8,45.0,30.04,ENE,67,1.0,-999.0,82,-99.99,,,0.00,weatherlink.com 1.10,2013-04-08 11:30:00,
2013-04-08 07:45:00,50.0,45.0,30.05,ENE,74,2.0,-999.0,83,-99.99,,,0.00,weatherlink.com 1.10,2013-04-08 11:45:00,
2013-04-08 08:00:00,50.4,45.0,30.05,ENE,73,0.0,-999.0,82,-99.99,,,0.00,weatherlink.com 1.10,2013-04-08 12:00:00,
2013-04-08 08:15:00,50.8,46.0,30.06,ENE,73,0.0,-999.0,82,-99.99,,,0.00,weatherlink.com 1.10,2013-04-08 12:15:00,
2013-04-08 08:30:00,51.7,46.0,30.06,East,88,0.0,-999.0,80,-99.99,,,0.00,weatherlink.com 1.10,2013-04-08 12:30:00,
2013-04-08 08:45:00,52.6,46.0,30.06,SE,125,0.0,-999.0,79,-99.99,,,0.00,weatherlink.com 1.10,2013-04-08 12:45:00,
2013-04-08 09:00:00,53.6,47.0,30.06,East,99,1.0,-999.0,77,-99.99,,,0.00,weatherlink.com 1.10,2013-04-08 13:00:00,
2013-04-08 09:15:00,55.1,47.0,30.06,SSW,206,2.0,-999.0,75,-99.99,,,0.00,weatherlink.com 1.10,2013-04-08 13:15:00,
2013-04-08 09:30:00,56.1,48.0,30.06,SW,216,2.0,-999.0,75,-99.99,,,0.00,weatherlink.com 1.10,2013-04-08 13:30:00,
2013-04-08 09:45:00,57.2,49.0,30.06,SSW,202,0.0,-999.0,74,-99.99,,,0.00,weatherlink.com 1.10,2013-04-08 13:45:00,
2013-04-08 10:00:00,58.3,50.0,30.06,SSE,159,4.0,-999.0,74,-99.99,,,0.00,weatherlink.com 1.10,2013-04-08 14:00:00,
2013-04-08 10:15:00,59.0,50.0,30.06,SE,145,0.0,-999.0,72,-99.99,,,0.00,weatherlink.com 1.10,2013-04-08 14:15:00,
2013-04-08 10:30:00,60.3,51.0,30.06,South,178,0.0,-999.0,72,-99.99,,,0.00,weatherlink.com 1.10,2013-04-08 14:30:00,
2013-04-08 10:45:00,61.0,52.0,30.06,SSW,209,3.0,-999.0,71,-99.99,,,0.00,weatherlink.com 1.10,2013-04-08 14:45:00,
2013-04-08 11:00:00,62.3,52.0,30.06,SSW,198,5.0,-999.0,69,-99.99,,,0.00,weatherlink.com 1.10,2013-04-08 15:00:00,
2013-04-08 11:15:00,64.3,52.0,30.07,SSW,193,2.0,-999.0,65,-99.99,,,0.00,weatherlink.com 1.10,2013-04-08 15:15:00,
2013-04-08 11:30:00,65.5,52.0,30.07,WSW,244,0.0,-999.0,62,-99.99,,,0.00,weatherlink.com 1.10,2013-04-08 15:30:00,
2013-04-08 11:45:00,66.5,52.0,30.06,SE,127,6.0,-999.0,60,-99.99,,,0.00,weatherlink.com 1.10,2013-04-08 15:45:00,
2013-04-08 12:00:00,66.2,51.0,30.07,South,173,11.0,-999.0,59,-99.99,,,0.00,weatherlink.com 1.10,2013-04-08 16:00:00,
2013-04-08 12:15:00,68.2,53.0,30.06,South,186,2.0,-999.0,59,-99.99,,,0.00,weatherlink.com 1.10,2013-04-08 16:15:00,
2013-04-08 12:30:00,68.6,54.0,30.06,South,176,4.0,-999.0,59,-99.99,,,0.00,weatherlink.com 1.10,2013-04-08 16:30:00,
2013-04-08 12:45:00,68.5,52.0,30.06,SSW,203,4.0,-999.0,57,-99.99,,,0.00,weatherlink.com 1.10,2013-04-08 16:45:00,
2013-04-08 13:00:00,69.2,53.0,30.05,NE,36,2.0,-999.0,56,-99.99,,,0.00,weatherlink.com 1.10,2013-04-08 17:00:00,
2013-04-08 13:15:00,66.3,51.0,30.05,SSE,168,2.0,-999.0,59,-99.99,,,0.00,weatherlink.com 1.10,2013-04-08 17:15:00,
2013-04-08 13:30:00,64.4,52.0,30.05,ESE,120,7.0,-999.0,65,-99.99,,,0.00,weatherlink.com 1.10,2013-04-08 17:30:00,
2013-04-08 13:45:00,65.7,53.0,30.04,South,175,5.0,-999.0,63,-99.99,,,0.00,weatherlink.com 1.10,2013-04-08 17:45:00,
2013-04-08 14:00:00,65.9,53.0,30.04,SSW,192,3.0,-999.0,63,-99.99,,,0.00,weatherlink.com 1.10,2013-04-08 18:00:00,
2013-04-08 14:15:00,65.5,52.0,30.03,SSE,161,5.0,-999.0,63,-99.99,,,0.00,weatherlink.com 1.10,2013-04-08 18:15:00,
2013-04-08 14:30:00,66.7,52.0,30.03,South,180,4.0,-999.0,59,-99.99,,,0.00,weatherlink.com 1.10,2013-04-08 18:30:00,
2013-04-08 14:45:00,67.5,52.0,30.02,SSE,148,5.0,-999.0,59,-99.99,,,0.00,weatherlink.com 1.10,2013-04-08 18:45:00,
2013-04-08 15:00:00,67.6,51.0,30.02,SSW,193,6.0,-999.0,56,-99.99,,,0.00,weatherlink.com 1.10,2013-04-08 19:00:00,
2013-04-08 15:15:00,67.9,52.0,30.02,SSE,158,5.0,-999.0,58,-99.99,,,0.00,weatherlink.com 1.10,2013-04-08 19:15:00,
2013-04-08 15:30:00,68.6,53.0,30.02,NNW,334,2.0,-999.0,57,-99.99,,,0.00,weatherlink.com 1.10,2013-04-08 19:30:00,
2013-04-08 15:45:00,68.9,52.0,30.01,NE,42,1.0,-999.0,55,-99.99,,,0.00,weatherlink.com 1.10,2013-04-08 19:45:00,
2013-04-08 16:00:00,69.0,52.0,30.01,SW,228,2.0,-999.0,55,-99.99,,,0.00,weatherlink.com 1.10,2013-04-08 20:00:00,
2013-04-08 16:15:00,69.2,52.0,30.01,NW,315,0.0,-999.0,55,-99.99,,,0.00,weatherlink.com 1.10,2013-04-08 20:15:00,
2013-04-08 16:30:00,69.1,51.0,30.00,ENE,71,3.0,-999.0,53,-99.99,,,0.00,weatherlink.com 1.10,2013-04-08 20:30:00,
2013-04-08 16:45:00,68.7,52.0,30.00,WNW,291,0.0,-999.0,55,-99.99,,,0.00,weatherlink.com 1.10,2013-04-08 20:45:00,
2013-04-08 17:00:00,68.2,51.0,30.00,SSE,161,2.0,-999.0,55,-99.99,,,0.00,weatherlink.com 1.10,2013-04-08 21:00:00,
2013-04-08 17:15:00,67.9,51.0,29.99,ESE,103,0.0,-999.0,55,-99.99,,,0.00,weatherlink.com 1.10,2013-04-08 21:15:00,
2013-04-08 17:30:00,68.7,51.0,29.99,ENE,73,0.0,-999.0,53,-99.99,,,0.00,weatherlink.com 1.10,2013-04-08 21:30:00,
2013-04-08 17:45:00,69.4,52.0,30.00,SSW,192,5.0,-999.0,54,-99.99,,,0.00,weatherlink.com 1.10,2013-04-08 21:45:00,
2013-04-08 18:00:00,68.3,51.0,30.00,East,100,0.0,-999.0,55,-99.99,,,0.00,weatherlink.com 1.10,2013-04-08 22:00:00,
2013-04-08 18:15:00,67.4,51.0,30.00,East,101,2.0,-999.0,57,-99.99,,,0.00,weatherlink.com 1.10,2013-04-08 22:15:00,
2013-04-08 18:30:00,67.0,51.0,30.01,SSW,193,4.0,-999.0,56,-99.99,,,0.00,weatherlink.com 1.10,2013-04-08 22:30:00,
2013-04-08 18:45:00,66.1,51.0,30.01,SSE,159,0.0,-999.0,58,-99.99,,,0.00,weatherlink.com 1.10,2013-04-08 22:45:00,
2013-04-08 19:00:00,65.3,51.0,30.01,SSE,164,4.0,-999.0,60,-99.99,,,0.00,weatherlink.com 1.10,2013-04-08 23:00:00,
2013-04-08 19:15:00,64.5,51.0,30.00,SSW,196,3.0,-999.0,62,-99.99,,,0.00,weatherlink.com 1.10,2013-04-08 23:15:00,
2013-04-08 19:30:00,63.3,51.0,30.01,SSE,155,2.0,-999.0,64,-99.99,,,0.00,weatherlink.com 1.10,2013-04-08 23:30:00,
2013-04-08 19:45:00,61.4,50.0,30.01,SSE,155,4.0,-999.0,66,-99.99,,,0.00,weatherlink.com 1.10,2013-04-08 23:45:00,
2013-04-08 20:00:00,59.9,50.0,30.01,SSE,150,5.0,-999.0,69,-99.99,,,0.00,weatherlink.com 1.10,2013-04-09 00:00:00,
2013-04-08 20:15:00,59.0,50.0,30.01,SE,134,5.0,-999.0,71,-99.99,,,0.00,weatherlink.com 1.10,2013-04-09 00:15:00,
2013-04-08 20:30:00,58.7,50.0,30.02,SSE,150,7.0,-999.0,72,-99.99,,,0.00,weatherlink.com 1.10,2013-04-09 00:30:00,
2013-04-08 20:45:00,58.3,49.0,30.02,SE,146,6.0,-999.0,72,-99.99,,,0.00,weatherlink.com 1.10,2013-04-09 00:45:00,
2013-04-08 21:00:00,57.8,49.0,30.02,SE,140,2.0,-999.0,73,-99.99,,,0.00,weatherlink.com 1.10,2013-04-09 01:00:00,
2013-04-08 21:15:00,57.7,49.0,30.02,ESE,121,4.0,-999.0,73,-99.99,,,0.00,weatherlink.com 1.10,2013-04-09 01:15:00,
2013-04-08 21:30:00,57.5,49.0,30.03,SSE,148,4.0,-999.0,74,-99.99,,,0.00,weatherlink.com 1.10,2013-04-09 01:30:00,
2013-04-08 21:45:00,57.2,49.0,30.03,SSE,156,4.0,-999.0,74,-99.99,,,0.00,weatherlink.com 1.10,2013-04-09 01:45:00,
2013-04-08 22:00:00,56.8,49.0,30.03,SSE,152,5.0,-999.0,75,-99.99,,,0.00,weatherlink.com 1.10,2013-04-09 02:00:00,
2013-04-08 22:15:00,56.5,49.0,30.03,SSE,159,5.0,-999.0,76,-99.99,,,0.00,weatherlink.com 1.10,2013-04-09 02:15:00,
2013-04-08 22:30:00,56.4,49.0,30.04,SSE,148,6.0,-999.0,77,-99.99,,,0.00,weatherlink.com 1.10,2013-04-09 02:30:00,
2013-04-08 22:45:00,56.5,49.0,30.03,SSE,168,5.0,-999.0,77,-99.99,,,0.00,weatherlink.com 1.10,2013-04-09 02:45:00,
2013-04-08 23:00:00,56.7,49.0,30.03,SSE,148,7.0,-999.0,76,-99.99,,,0.00,weatherlink.com 1.10,2013-04-09 03:00:00,
2013-04-08 23:15:00,56.9,49.0,30.03,SSE,167,6.0,-999.0,76,-99.99,,,0.00,weatherlink.com 1.10,2013-04-09 03:15:00,
2013-04-08 23:30:00,56.8,49.0,30.03,SSE,165,5.0,-999.0,76,-99.99,,,0.00,weatherlink.com 1.10,2013-04-09 03:30:00,
2013-04-08 23:45:00,56.7,49.0,30.03,SSE,165,6.0,-999.0,76,-99.99,,,0.00,weatherlink.com 1.10,2013-04-09 03:45:00,